Time;durP1;ratioP1;P1;durP2;ratioP2;P2;SDS_P1;SDS_P2;PMS_P1;PMS_P2;Temp;Humidity;BMP_temperature;BMP_pressure;BME280_temperature;BME280_humidity;BME280_pressure;Samples;Min_cycle;Max_cycle;Signal;HPM_P1;HPM_P2
2024/01/28 00:00:57;;;;;;;94.30;55.00;;;15.50;59.40;;;;;;5010827;27;90563;-80
2024/01/28 00:03:23;;;;;;;93.15;54.33;;;15.40;59.40;;;;;;5012773;27;90557;-81
2024/01/28 00:05:51;;;;;;;93.45;54.17;;;15.40;59.40;;;;;;5017638;27;89358;-79
2024/01/28 00:08:17;;;;;;;93.03;54.13;;;15.30;59.30;;;;;;5016336;28;90171;-79
2024/01/28 00:10:43;;;;;;;94.75;54.30;;;15.30;59.30;;;;;;5012701;28;89938;-79
2024/01/28 00:13:08;;;;;;;94.65;54.47;;;15.30;59.30;;;;;;5012060;27;91935;-79
2024/01/28 00:15:34;;;;;;;93.50;54.15;;;15.30;59.30;;;;;;5020450;27;89985;-79
2024/01/28 00:18:00;;;;;;;93.78;54.40;;;15.20;59.20;;;;;;5013590;27;90620;-79
2024/01/28 00:20:25;;;;;;;91.45;53.63;;;15.20;59.30;;;;;;5017506;27;89748;-79
2024/01/28 00:22:51;;;;;;;93.28;53.90;;;15.20;59.30;;;;;;5017323;27;89720;-78
2024/01/28 00:25:17;;;;;;;92.90;54.22;;;15.20;59.30;;;;;;5017613;27;91017;-79
2024/01/28 00:27:42;;;;;;;92.80;54.08;;;15.10;59.20;;;;;;5017505;27;92621;-78
2024/01/28 00:30:11;;;;;;;94.25;54.08;;;15.10;59.20;;;;;;5016460;27;90430;-79
2024/01/28 00:32:37;;;;;;;92.50;53.97;;;15.10;59.30;;;;;;5020760;27;90147;-77
2024/01/28 00:35:04;;;;;;;92.50;53.95;;;15.10;59.30;;;;;;5019892;27;89497;-78
2024/01/28 00:37:29;;;;;;;91.45;53.88;;;15.00;59.20;;;;;;5016408;27;89893;-78
2024/01/28 00:39:55;;;;;;;92.30;53.67;;;15.00;59.30;;;;;;5018185;27;89234;-78
2024/01/28 00:42:21;;;;;;;92.10;53.85;;;15.00;59.30;;;;;;5019274;27;89484;-79
2024/01/28 00:44:47;;;;;;;93.40;53.95;;;15.00;59.30;;;;;;5019146;27;89169;-78
2024/01/28 00:47:12;;;;;;;91.55;53.55;;;15.00;59.30;;;;;;5002977;28;93090;-78
2024/01/28 00:49:38;;;;;;;93.70;54.10;;;15.00;59.30;;;;;;5014075;27;89431;-78
2024/01/28 00:52:04;;;;;;;91.93;53.42;;;14.90;59.20;;;;;;5019872;27;91348;-78
2024/01/28 00:54:29;;;;;;;94.40;53.65;;;14.90;59.20;;;;;;5018292;27;90352;-78
2024/01/28 00:56:56;;;;;;;95.50;54.58;;;14.90;59.10;;;;;;4982007;27;94320;-78
2024/01/28 00:59:22;;;;;;;94.25;53.97;;;14.90;59.20;;;;;;5003279;27;90625;-81
2024/01/28 01:01:49;;;;;;;92.40;54.05;;;14.80;59.30;;;;;;4983587;27;91749;-75
2024/01/28 01:04:14;;;;;;;92.82;54.13;;;14.80;59.30;;;;;;5003043;27;90302;-76
2024/01/28 01:06:44;;;;;;;91.97;53.90;;;14.80;59.30;;;;;;5012156;28;91276;-75
2024/01/28 01:09:10;;;;;;;92.10;53.53;;;14.80;59.30;;;;;;5016180;28;89446;-76
2024/01/28 01:11:36;;;;;;;92.25;53.53;;;14.80;59.40;;;;;;5014181;28;91738;-76
2024/01/28 01:14:03;;;;;;;93.03;53.85;;;14.80;59.40;;;;;;5000321;28;89968;-75
2024/01/28 01:16:29;;;;;;;91.47;53.53;;;14.80;59.50;;;;;;5010897;27;91671;-77
2024/01/28 01:18:55;;;;;;;91.07;53.38;;;14.80;59.50;;;;;;4999889;28;93518;-77
2024/01/28 01:21:20;;;;;;;93.50;53.72;;;14.80;59.40;;;;;;5007767;28;90304;-76
2024/01/28 01:23:46;;;;;;;93.53;53.70;;;14.70;59.40;;;;;;5018804;28;89946;-76
2024/01/28 01:26:12;;;;;;;91.85;53.33;;;14.70;59.40;;;;;;5000586;27;91973;-77
2024/01/28 01:28:37;;;;;;;93.57;53.95;;;14.70;59.50;;;;;;4990778;28;92575;-82
2024/01/28 01:31:04;;;;;;;93.10;53.85;;;14.70;59.50;;;;;;5024407;27;89955;-82
2024/01/28 01:33:30;;;;;;;92.35;53.20;;;14.70;59.50;;;;;;5029994;28;89636;-79
2024/01/28 01:35:56;;;;;;;91.90;53.78;;;14.70;59.50;;;;;;4965467;27;94263;-79
2024/01/28 01:38:22;;;;;;;91.45;53.40;;;14.70;59.60;;;;;;4995941;27;90524;-76
2024/01/28 01:40:48;;;;;;;91.57;53.63;;;14.60;59.60;;;;;;5002626;27;90584;-78
2024/01/28 01:43:15;;;;;;;92.25;53.28;;;14.60;59.60;;;;;;5019015;27;89161;-78
2024/01/28 01:45:44;;;;;;;90.22;53.22;;;14.60;59.60;;;;;;4998584;28;92959;-78
2024/01/28 01:48:11;;;;;;;91.50;53.53;;;14.60;59.50;;;;;;5016032;27;89663;-77
2024/01/28 01:50:40;;;;;;;90.80;53.10;;;14.60;59.60;;;;;;5014885;27;93733;-77
2024/01/28 01:53:06;;;;;;;92.13;53.13;;;14.60;59.70;;;;;;5016485;27;90880;-78
2024/01/28 01:55:36;;;;;;;91.25;52.92;;;14.50;59.60;;;;;;5022032;27;92915;-78
2024/01/28 01:58:04;;;;;;;89.78;52.97;;;14.50;59.60;;;;;;5011313;27;89813;-77
2024/01/28 02:00:31;;;;;;;91.70;52.78;;;14.50;59.60;;;;;;5018103;27;89304;-77
2024/01/28 02:02:56;;;;;;;90.05;52.42;;;14.40;59.60;;;;;;5016019;27;89169;-77
2024/01/28 02:05:22;;;;;;;91.70;53.30;;;14.40;59.60;;;;;;5023223;27;90489;-77
2024/01/28 02:07:49;;;;;;;91.93;53.13;;;14.40;59.50;;;;;;5018741;28;90386;-77
2024/01/28 02:10:15;;;;;;;92.10;53.67;;;14.40;59.70;;;;;;5016843;27;91523;-78
2024/01/28 02:12:43;;;;;;;91.28;52.92;;;14.40;59.60;;;;;;5020015;27;89785;-77
2024/01/28 02:15:10;;;;;;;90.85;53.35;;;14.40;59.70;;;;;;5021347;27;90193;-78
2024/01/28 02:17:36;;;;;;;91.20;53.25;;;14.40;59.60;;;;;;5013064;27;89796;-78
2024/01/28 02:20:03;;;;;;;90.70;53.33;;;14.40;59.50;;;;;;5023025;28;89364;-77
2024/01/28 02:22:29;;;;;;;91.50;53.38;;;14.40;59.60;;;;;;5012478;27;90179;-77
2024/01/28 02:24:55;;;;;;;90.30;53.25;;;14.40;59.50;;;;;;5013045;27;93610;-77
2024/01/28 02:27:21;;;;;;;90.07;53.05;;;14.30;59.50;;;;;;5017272;27;90090;-77
2024/01/28 02:29:46;;;;;;;92.05;53.50;;;14.30;59.40;;;;;;5014110;28;90736;-77
2024/01/28 02:32:16;;;;;;;95.25;53.40;;;14.30;59.60;;;;;;5001500;28;89001;-77
2024/01/28 02:34:42;;;;;;;91.20;53.35;;;14.30;59.50;;;;;;5017009;27;90080;-77
2024/01/28 02:37:10;;;;;;;89.78;53.13;;;14.20;59.50;;;;;;5016726;27;90762;-77
2024/01/28 02:39:36;;;;;;;91.28;52.58;;;14.20;59.50;;;;;;5016551;27;90613;-78
2024/01/28 02:42:02;;;;;;;91.25;53.45;;;14.20;59.60;;;;;;5019624;27;88954;-77
2024/01/28 02:44:28;;;;;;;90.07;52.85;;;14.20;59.50;;;;;;5014720;27;92263;-77
2024/01/28 02:46:56;;;;;;;90.45;52.67;;;14.20;59.60;;;;;;5020468;28;90303;-77
2024/01/28 02:49:23;;;;;;;90.53;53.03;;;14.20;59.60;;;;;;5017709;27;89978;-77
2024/01/28 02:51:50;;;;;;;90.60;53.25;;;14.20;59.60;;;;;;5014396;27;89574;-78
2024/01/28 02:54:16;;;;;;;89.72;52.97;;;14.20;59.60;;;;;;5018411;27;91086;-79
2024/01/28 02:56:42;;;;;;;90.10;52.90;;;14.20;59.70;;;;;;5017782;27;90405;-78
2024/01/28 02:59:08;;;;;;;90.20;53.03;;;14.20;59.70;;;;;;5018940;27;89076;-78
2024/01/28 03:01:33;;;;;;;91.90;53.47;;;14.20;59.60;;;;;;5020031;27;89576;-80
2024/01/28 03:03:59;;;;;;;90.82;52.50;;;14.10;59.70;;;;;;4997647;28;93198;-78
2024/01/28 03:06:25;;;;;;;89.38;53.17;;;14.10;59.70;;;;;;5019256;27;89575;-81
2024/01/28 03:08:50;;;;;;;91.95;53.17;;;14.10;59.80;;;;;;5021452;27;89558;-81
2024/01/28 03:11:16;;;;;;;91.20;52.65;;;14.10;59.90;;;;;;5023308;27;89382;-81
2024/01/28 03:13:41;;;;;;;89.95;52.67;;;14.10;60.00;;;;;;5019024;27;90198;-80
2024/01/28 03:16:07;;;;;;;94.05;53.45;;;14.10;60.00;;;;;;5021218;27;89442;-80
2024/01/28 03:18:33;;;;;;;90.40;53.08;;;14.10;60.00;;;;;;5019709;27;90389;-78
2024/01/28 03:20:58;;;;;;;92.05;52.80;;;14.10;60.10;;;;;;5018688;27;89237;-78
2024/01/28 03:23:24;;;;;;;89.57;52.85;;;14.00;60.00;;;;;;5020428;28;89639;-80
2024/01/28 03:25:49;;;;;;;89.65;53.05;;;14.00;60.00;;;;;;5014189;27;89188;-75
2024/01/28 03:28:15;;;;;;;90.63;52.55;;;14.00;60.00;;;;;;5005063;28;89483;-74
2024/01/28 03:30:41;;;;;;;89.72;52.40;;;14.00;60.00;;;;;;5014979;27;89426;-75
2024/01/28 03:33:06;;;;;;;90.07;52.88;;;14.00;60.00;;;;;;4996249;28;94050;-74
2024/01/28 03:35:32;;;;;;;90.05;52.83;;;14.00;60.00;;;;;;5015819;27;90123;-76
2024/01/28 03:37:58;;;;;;;89.10;52.60;;;14.00;60.00;;;;;;5015107;28;89875;-74
2024/01/28 03:40:23;;;;;;;90.35;52.85;;;14.00;59.90;;;;;;5021163;27;89616;-75
2024/01/28 03:42:49;;;;;;;89.40;52.55;;;13.90;59.90;;;;;;4997733;28;93571;-75
2024/01/28 03:45:15;;;;;;;90.03;52.65;;;13.90;59.90;;;;;;5017992;27;90825;-75
2024/01/28 03:47:40;;;;;;;91.43;52.67;;;13.90;59.90;;;;;;5014814;27;90454;-76
2024/01/28 03:50:06;;;;;;;89.10;52.97;;;13.90;59.90;;;;;;5019975;28;90275;-76
2024/01/28 03:52:32;;;;;;;91.82;52.78;;;13.90;60.00;;;;;;5016438;27;93551;-75
2024/01/28 03:54:57;;;;;;;88.28;52.30;;;13.90;59.80;;;;;;5018712;27;90694;-75
2024/01/28 03:57:23;;;;;;;89.20;52.60;;;13.80;59.90;;;;;;5022517;27;89640;-75
2024/01/28 03:59:49;;;;;;;89.22;52.80;;;13.80;59.90;;;;;;5018435;28;89030;-76
2024/01/28 04:02:15;;;;;;;93.10;53.13;;;13.80;59.90;;;;;;5022932;27;93423;-75
2024/01/28 04:04:41;;;;;;;89.22;52.55;;;13.80;59.90;;;;;;5020454;27;90866;-75
2024/01/28 04:07:07;;;;;;;89.95;52.78;;;13.80;59.90;;;;;;5022643;27;91612;-75
2024/01/28 04:09:35;;;;;;;89.15;52.92;;;13.80;59.90;;;;;;5017682;27;93361;-75
2024/01/28 04:12:01;;;;;;;91.03;53.00;;;13.80;59.80;;;;;;5022796;27;91132;-77
2024/01/28 04:14:27;;;;;;;89.43;52.85;;;13.80;59.90;;;;;;5017761;27;90343;-75
2024/01/28 04:16:53;;;;;;;91.35;52.83;;;13.80;59.80;;;;;;5016815;27;89917;-75
2024/01/28 04:19:18;;;;;;;88.63;52.72;;;13.80;59.90;;;;;;4999214;27;89958;-74
2024/01/28 04:21:44;;;;;;;89.05;52.28;;;13.80;59.90;;;;;;5018387;27;91242;-75
2024/01/28 04:24:10;;;;;;;88.82;52.20;;;13.80;59.90;;;;;;5015126;27;90598;-76
2024/01/28 04:26:35;;;;;;;88.50;52.72;;;13.80;59.90;;;;;;5025196;27;89179;-76
2024/01/28 04:29:01;;;;;;;89.50;52.80;;;13.80;60.00;;;;;;5020660;27;89911;-76
2024/01/28 04:31:27;;;;;;;90.40;52.60;;;13.70;59.90;;;;;;4992284;28;94420;-75
2024/01/28 04:33:54;;;;;;;88.28;52.75;;;13.70;59.90;;;;;;5017097;27;90745;-75
2024/01/28 04:36:20;;;;;;;89.85;52.63;;;13.70;59.90;;;;;;5022039;27;89829;-75
2024/01/28 04:38:46;;;;;;;91.03;52.88;;;13.70;59.90;;;;;;5023569;27;90221;-75
2024/01/28 04:41:12;;;;;;;88.97;52.83;;;13.70;60.00;;;;;;5020469;27;89898;-75
2024/01/28 04:43:38;;;;;;;88.28;52.53;;;13.70;60.00;;;;;;5019713;27;89981;-76
2024/01/28 04:46:04;;;;;;;90.75;52.53;;;13.70;59.90;;;;;;5018499;27;90024;-75
2024/01/28 04:48:30;;;;;;;89.72;52.65;;;13.70;59.80;;;;;;5020667;27;88973;-74
2024/01/28 04:50:55;;;;;;;88.78;52.90;;;13.70;59.80;;;;;;5018075;27;90657;-75
2024/01/28 04:53:21;;;;;;;90.13;52.28;;;13.70;60.70;;;;;;5021259;27;90865;-74
2024/01/28 04:55:47;;;;;;;89.40;52.70;;;13.60;59.90;;;;;;5019110;27;90666;-74
2024/01/28 04:58:12;;;;;;;90.43;52.90;;;13.60;60.00;;;;;;5025061;27;89846;-77
2024/01/28 05:00:38;;;;;;;89.70;52.60;;;13.60;59.90;;;;;;5016229;28;89758;-77
2024/01/28 05:03:04;;;;;;;87.90;52.35;;;13.60;59.90;;;;;;5020328;27;91450;-76
2024/01/28 05:05:29;;;;;;;88.80;52.60;;;13.60;59.90;;;;;;5022500;28;90014;-76
2024/01/28 05:07:55;;;;;;;89.38;52.70;;;13.60;60.00;;;;;;5021427;27;90113;-77
2024/01/28 05:10:20;;;;;;;89.30;52.53;;;13.60;59.90;;;;;;5013656;27;89966;-76
2024/01/28 05:12:47;;;;;;;89.55;52.58;;;13.60;60.00;;;;;;5020022;27;90489;-77
2024/01/28 05:15:17;;;;;;;90.47;52.35;;;13.60;59.90;;;;;;5019261;27;89588;-77
2024/01/28 05:17:44;;;;;;;89.32;52.42;;;13.60;60.00;;;;;;5019171;27;89398;-77
2024/01/28 05:20:11;;;;;;;87.53;52.25;;;13.60;60.00;;;;;;5015831;27;91051;-77
2024/01/28 05:22:40;;;;;;;88.18;52.33;;;13.50;59.80;;;;;;5018841;27;90483;-77
2024/01/28 05:25:06;;;;;;;89.00;52.75;;;13.50;59.90;;;;;;5015865;27;90215;-77
2024/01/28 05:27:32;;;;;;;88.22;52.63;;;13.50;59.90;;;;;;5020458;27;89897;-77
2024/01/28 05:29:58;;;;;;;88.25;52.70;;;13.50;59.90;;;;;;5020521;27;89845;-77
2024/01/28 05:32:28;;;;;;;89.30;52.60;;;13.50;59.90;;;;;;5014095;28;89799;-78
2024/01/28 05:34:56;;;;;;;88.07;52.58;;;13.50;59.90;;;;;;5015401;27;89216;-77
2024/01/28 05:37:22;;;;;;;89.68;52.83;;;13.50;59.80;;;;;;5020510;27;88479;-77
2024/01/28 05:39:47;;;;;;;88.40;52.55;;;13.40;59.90;;;;;;5014276;27;90957;-77
2024/01/28 05:42:13;;;;;;;91.97;52.67;;;13.40;59.80;;;;;;5002740;27;91271;-77
2024/01/28 05:44:39;;;;;;;88.72;52.50;;;13.50;59.90;;;;;;5020776;28;90967;-77
2024/01/28 05:47:05;;;;;;;89.07;52.30;;;13.40;59.80;;;;;;5016457;27;89601;-77
2024/01/28 05:49:31;;;;;;;90.50;52.42;;;13.50;59.90;;;;;;5020646;28;90142;-77
2024/01/28 05:51:56;;;;;;;86.38;51.88;;;13.40;59.80;;;;;;5015638;28;91602;-78
2024/01/28 05:54:22;;;;;;;87.15;51.92;;;13.40;59.90;;;;;;5020505;27;89175;-78
2024/01/28 05:56:48;;;;;;;88.25;52.30;;;13.40;59.90;;;;;;5017600;27;89421;-76
2024/01/28 05:59:14;;;;;;;88.18;52.28;;;13.40;59.90;;;;;;5006280;28;93812;-77
2024/01/28 06:01:39;;;;;;;86.38;51.90;;;13.40;59.90;;;;;;5019862;27;89446;-76
2024/01/28 06:04:06;;;;;;;87.50;51.75;;;13.40;59.90;;;;;;5019832;27;89867;-78
2024/01/28 06:06:32;;;;;;;87.25;52.20;;;13.40;60.00;;;;;;5005236;28;89899;-79
2024/01/28 06:08:58;;;;;;;88.03;52.15;;;13.40;59.90;;;;;;5016246;27;90703;-78
2024/01/28 06:11:25;;;;;;;87.95;51.67;;;13.40;60.00;;;;;;5003191;28;93882;-78
2024/01/28 06:13:50;;;;;;;86.45;51.67;;;13.30;59.90;;;;;;5010652;27;89922;-78
2024/01/28 06:16:16;;;;;;;88.22;52.35;;;13.40;60.00;;;;;;5023962;27;89141;-78
2024/01/28 06:18:43;;;;;;;87.25;51.85;;;13.30;59.90;;;;;;5019344;27;89866;-77
2024/01/28 06:21:12;;;;;;;88.72;52.65;;;13.30;59.90;;;;;;5018430;27;93956;-77
2024/01/28 06:23:38;;;;;;;87.88;52.40;;;13.30;59.90;;;;;;5003009;28;88735;-77
2024/01/28 06:26:05;;;;;;;88.25;52.00;;;13.30;59.80;;;;;;5017532;27;89036;-77
2024/01/28 06:28:31;;;;;;;88.15;51.97;;;13.30;59.90;;;;;;5023239;27;90605;-77
2024/01/28 06:30:57;;;;;;;87.38;52.15;;;13.30;59.90;;;;;;5017481;27;90082;-77
2024/01/28 06:33:22;;;;;;;88.72;52.47;;;13.30;59.90;;;;;;5015432;27;91424;-77
2024/01/28 06:35:48;;;;;;;87.50;52.25;;;13.30;59.90;;;;;;5004083;28;89176;-77
2024/01/28 06:38:13;;;;;;;87.47;52.05;;;13.30;60.00;;;;;;5017649;27;89513;-77
2024/01/28 06:40:39;;;;;;;88.25;52.38;;;13.30;59.90;;;;;;5017896;27;91616;-77
2024/01/28 06:43:05;;;;;;;87.78;51.80;;;13.30;59.90;;;;;;5016565;27;89588;-77
2024/01/28 06:45:30;;;;;;;87.28;52.15;;;13.30;59.90;;;;;;5004260;27;90277;-77
2024/01/28 06:47:56;;;;;;;89.47;52.35;;;13.30;59.90;;;;;;5017765;27;89801;-78
2024/01/28 06:50:22;;;;;;;86.80;52.22;;;13.20;59.80;;;;;;5016770;27;89651;-77
2024/01/28 06:52:48;;;;;;;86.78;51.38;;;13.20;59.80;;;;;;4999668;28;89253;-77
2024/01/28 06:55:14;;;;;;;87.65;52.45;;;13.20;59.90;;;;;;5016394;27;90076;-79
2024/01/28 06:57:39;;;;;;;88.05;51.95;;;13.20;60.00;;;;;;5019998;27;90938;-77
2024/01/28 07:00:10;;;;;;;87.55;52.22;;;13.20;59.90;;;;;;5018140;27;90290;-77
2024/01/28 07:02:36;;;;;;;88.07;52.22;;;13.20;59.90;;;;;;5019141;27;89327;-78
2024/01/28 07:05:02;;;;;;;86.85;51.88;;;13.20;59.90;;;;;;5015865;27;92161;-78
2024/01/28 07:07:27;;;;;;;90.25;51.92;;;13.20;59.80;;;;;;5015945;27;89314;-81
2024/01/28 07:09:53;;;;;;;88.13;51.90;;;13.20;59.90;;;;;;5015467;27;89269;-79
2024/01/28 07:12:19;;;;;;;87.00;52.13;;;13.20;59.90;;;;;;5016164;28;88764;-82
2024/01/28 07:14:44;;;;;;;85.93;51.83;;;13.20;60.00;;;;;;5020948;28;88647;-80
2024/01/28 07:17:10;;;;;;;87.30;51.88;;;13.20;59.90;;;;;;5019892;27;90097;-79
2024/01/28 07:19:36;;;;;;;87.53;52.10;;;13.20;59.90;;;;;;5001233;28;92532;-78
2024/01/28 07:22:01;;;;;;;87.53;52.05;;;13.20;60.00;;;;;;5000894;28;90965;-79
2024/01/28 07:24:27;;;;;;;87.03;51.95;;;13.10;59.90;;;;;;5018423;27;90945;-78
2024/01/28 07:26:53;;;;;;;88.65;51.80;;;13.20;60.70;;;;;;5019688;27;89789;-80
2024/01/28 07:29:18;;;;;;;86.38;51.67;;;13.20;60.00;;;;;;5018341;27;89425;-77
2024/01/28 07:31:44;;;;;;;93.75;51.95;;;13.20;60.00;;;;;;5015079;27;89596;-79
2024/01/28 07:34:10;;;;;;;87.35;51.92;;;13.20;60.00;;;;;;5016583;27;89186;-78
2024/01/28 07:36:35;;;;;;;86.88;51.80;;;13.20;59.90;;;;;;5014902;27;89285;-79
2024/01/28 07:39:04;;;;;;;88.47;51.83;;;13.20;60.00;;;;;;5011772;27;92445;-79
2024/01/28 07:41:34;;;;;;;88.80;51.72;;;13.10;60.00;;;;;;5002591;28;89995;-79
2024/01/28 07:44:00;;;;;;;90.53;51.42;;;13.20;59.90;;;;;;5016612;27;89826;-77
2024/01/28 07:46:26;;;;;;;88.35;51.95;;;13.10;59.90;;;;;;5015976;27;90745;-78
2024/01/28 07:48:52;;;;;;;87.55;52.15;;;13.20;59.80;;;;;;5018102;27;91055;-77
2024/01/28 07:51:17;;;;;;;87.05;51.97;;;13.20;59.80;;;;;;5014045;27;93575;-77
2024/01/28 07:53:43;;;;;;;89.78;51.78;;;13.20;59.90;;;;;;5016288;27;89125;-77
2024/01/28 07:56:09;;;;;;;87.40;51.97;;;13.20;59.70;;;;;;5017583;27;89823;-77
2024/01/28 07:58:34;;;;;;;87.97;51.45;;;13.20;59.90;;;;;;5016065;27;90511;-78
2024/01/28 08:01:01;;;;;;;87.72;51.92;;;13.20;59.70;;;;;;5013414;27;88967;-77
2024/01/28 08:03:26;;;;;;;88.35;51.95;;;13.10;59.80;;;;;;5010856;27;87947;-78
2024/01/28 08:05:52;;;;;;;90.25;52.38;;;13.10;59.80;;;;;;5013903;27;90389;-78
2024/01/28 08:08:18;;;;;;;86.00;51.53;;;13.10;59.80;;;;;;5002334;28;92688;-78
2024/01/28 08:10:43;;;;;;;87.57;52.00;;;13.10;59.80;;;;;;5011667;28;90121;-78
2024/01/28 08:13:09;;;;;;;86.38;51.78;;;13.10;59.90;;;;;;5002458;28;89100;-78
2024/01/28 08:15:36;;;;;;;87.57;52.35;;;13.10;59.80;;;;;;4998486;27;92905;-80
2024/01/28 08:18:01;;;;;;;87.88;51.97;;;13.20;59.90;;;;;;5015733;27;89495;-78
2024/01/28 08:20:27;;;;;;;88.20;52.10;;;13.20;59.90;;;;;;5023412;27;92113;-78
2024/01/28 08:22:53;;;;;;;88.68;52.25;;;13.20;59.90;;;;;;5016404;27;90596;-79
2024/01/28 08:25:18;;;;;;;87.40;51.72;;;13.20;59.90;;;;;;5014579;27;93389;-78
2024/01/28 08:27:44;;;;;;;89.22;51.80;;;13.10;59.90;;;;;;5013959;27;89249;-78
2024/01/28 08:30:11;;;;;;;90.05;52.22;;;13.10;59.90;;;;;;5014673;27;90337;-77
2024/01/28 08:32:37;;;;;;;92.25;52.25;;;13.20;59.90;;;;;;5012432;27;89540;-75
2024/01/28 08:35:03;;;;;;;88.07;52.17;;;13.20;60.00;;;;;;5013172;27;91794;-81
2024/01/28 08:37:29;;;;;;;88.85;52.33;;;13.20;59.90;;;;;;4995541;28;93289;-80
2024/01/28 08:39:55;;;;;;;88.57;51.25;;;13.20;59.80;;;;;;4998890;27;89199;-82
2024/01/28 08:42:21;;;;;;;87.05;51.80;;;13.20;59.80;;;;;;5015437;28;89497;-80
2024/01/28 08:44:47;;;;;;;87.32;52.08;;;13.20;59.80;;;;;;5020970;27;91865;-80
2024/01/28 08:47:13;;;;;;;87.22;51.97;;;13.20;59.90;;;;;;5017667;27;89098;-81
2024/01/28 08:49:39;;;;;;;86.78;51.70;;;13.10;59.60;;;;;;5024561;28;88860;-81
2024/01/28 08:52:04;;;;;;;88.15;51.83;;;13.10;59.70;;;;;;5021052;27;88875;-81
2024/01/28 08:54:30;;;;;;;88.75;52.30;;;13.20;59.70;;;;;;5024128;28;89649;-82
2024/01/28 08:56:57;;;;;;;88.93;51.50;;;13.10;59.50;;;;;;5023907;28;89885;-81
2024/01/28 08:59:22;;;;;;;87.28;51.58;;;13.20;59.70;;;;;;5001404;28;91578;-82
2024/01/28 09:01:49;;;;;;;87.43;51.67;;;13.10;59.80;;;;;;5018485;27;89924;-81
2024/01/28 09:04:15;;;;;;;88.85;51.60;;;13.20;59.80;;;;;;5019568;27;90448;-76
2024/01/28 09:06:41;;;;;;;88.50;52.08;;;13.20;59.80;;;;;;5019544;28;90394;-76
2024/01/28 09:09:08;;;;;;;93.45;51.75;;;13.20;60.00;;;;;;5019509;27;89412;-75
2024/01/28 09:11:37;;;;;;;87.75;52.13;;;13.20;60.00;;;;;;5019039;27;90121;-77
2024/01/28 09:14:03;;;;;;;89.10;52.78;;;13.20;60.10;;;;;;5025053;27;91340;-78
2024/01/28 09:16:29;;;;;;;88.28;52.00;;;13.20;60.30;;;;;;5011892;28;89482;-78
2024/01/28 09:18:55;;;;;;;86.18;51.88;;;13.30;60.50;;;;;;5012231;27;89062;-79
2024/01/28 09:21:20;;;;;;;89.20;51.88;;;13.30;60.30;;;;;;4998839;27;90861;-74
2024/01/28 09:23:46;;;;;;;89.32;53.55;;;13.40;60.40;;;;;;5020511;27;91693;-76
2024/01/28 09:26:12;;;;;;;97.72;54.63;;;13.70;59.80;;;;;;5017834;27;90714;-77
2024/01/28 09:28:37;;;;;;;99.18;56.22;;;13.80;59.40;;;;;;5015150;27;89691;-76
2024/01/28 09:31:07;;;;;;;107.50;57.47;;;13.90;59.50;;;;;;5020422;27;89334;-77
2024/01/28 09:33:33;;;;;;;102.72;57.53;;;14.00;59.90;;;;;;5009473;27;90004;-80
2024/01/28 09:35:59;;;;;;;99.30;57.00;;;14.00;59.10;;;;;;5010468;27;89666;-78
2024/01/28 09:38:24;;;;;;;102.65;58.00;;;14.00;59.30;;;;;;5017608;27;89381;-78
2024/01/28 09:40:52;;;;;;;106.15;56.47;;;14.10;59.20;;;;;;5020353;28;88826;-75
2024/01/28 09:43:30;;;;;;;96.18;55.88;;;14.10;59.20;;;;;;5024170;27;90932;-76
2024/01/28 09:45:57;;;;;;;120.10;71.72;;;14.10;59.60;;;;;;5019334;27;90127;-78
2024/01/28 09:48:23;;;;;;;124.05;75.47;;;14.20;59.90;;;;;;5021732;27;90587;-78
2024/01/28 09:50:48;;;;;;;122.15;71.35;;;14.30;60.70;;;;;;5021038;27;88800;-79
2024/01/28 09:53:14;;;;;;;117.82;68.57;;;14.20;60.40;;;;;;5016622;27;89905;-79
2024/01/28 09:55:40;;;;;;;109.18;65.78;;;14.30;60.20;;;;;;5002244;28;93436;-79
2024/01/28 09:58:08;;;;;;;110.90;64.60;;;14.40;60.20;;;;;;5022890;27;88969;-80
2024/01/28 10:00:35;;;;;;;108.85;64.32;;;14.40;60.60;;;;;;5015017;27;89982;-76
2024/01/28 10:03:00;;;;;;;109.00;63.45;;;14.40;60.30;;;;;;5019129;27;90248;-79
2024/01/28 10:05:26;;;;;;;105.72;62.42;;;14.50;60.00;;;;;;5019836;27;89609;-80
2024/01/28 10:08:01;;;;;;;105.28;61.28;;;14.50;59.90;;;;;;5016379;28;89653;-80
2024/01/28 10:10:26;;;;;;;104.53;61.47;;;14.60;59.80;;;;;;5018273;27;89483;-79
2024/01/28 10:12:52;;;;;;;102.13;59.95;;;14.60;59.60;;;;;;5017282;28;90996;-79
2024/01/28 10:15:20;;;;;;;101.50;60.08;;;14.80;59.30;;;;;;4998253;27;93737;-80
2024/01/28 10:17:49;;;;;;;104.30;60.10;;;14.80;59.10;;;;;;5012963;27;90936;-78
2024/01/28 10:20:25;;;;;;;102.90;59.85;;;14.90;59.00;;;;;;5012153;27;89381;-79
2024/01/28 10:22:52;;;;;;;103.25;59.65;;;14.90;58.80;;;;;;5016600;27;92082;-78
2024/01/28 10:25:19;;;;;;;102.97;59.47;;;15.00;58.80;;;;;;5012605;28;89800;-78
2024/01/28 10:27:47;;;;;;;100.40;58.45;;;15.00;58.70;;;;;;5018429;27;89711;-78
2024/01/28 10:30:14;;;;;;;99.57;58.60;;;15.00;58.80;;;;;;4997367;28;88943;-77
2024/01/28 10:32:41;;;;;;;101.13;58.58;;;15.00;58.90;;;;;;5014162;27;90674;-78
2024/01/28 10:35:13;;;;;;;99.95;57.90;;;15.00;59.00;;;;;;5014093;27;91869;-77
2024/01/28 10:37:40;;;;;;;99.68;58.15;;;15.00;58.90;;;;;;5010369;27;94411;-78
2024/01/28 10:40:11;;;;;;;102.63;58.05;;;15.10;59.00;;;;;;5014272;27;89640;-77
2024/01/28 10:42:39;;;;;;;99.13;57.72;;;15.00;59.50;;;;;;5010917;28;89799;-75
2024/01/28 10:45:13;;;;;;;97.57;57.75;;;15.00;59.00;;;;;;5012967;27;89721;-77
2024/01/28 10:47:44;;;;;;;98.68;57.00;;;15.10;58.80;;;;;;5013001;27;93352;-77
2024/01/28 10:50:13;;;;;;;99.72;57.70;;;15.10;59.10;;;;;;5012466;27;90033;-76
2024/01/28 10:52:39;;;;;;;97.53;56.67;;;15.10;58.80;;;;;;5007690;27;90578;-75
2024/01/28 10:55:06;;;;;;;98.38;57.10;;;15.20;58.70;;;;;;4994480;28;91671;-76
2024/01/28 10:57:36;;;;;;;98.63;57.55;;;15.20;58.70;;;;;;5014135;27;89813;-76
2024/01/28 11:00:06;;;;;;;100.32;57.95;;;15.20;58.90;;;;;;5013889;27;89830;-77
2024/01/28 11:02:33;;;;;;;97.57;57.38;;;15.20;58.90;;;;;;5015602;27;91724;-76
2024/01/28 11:04:59;;;;;;;97.38;57.15;;;15.20;59.10;;;;;;5008145;27;90574;-78
2024/01/28 11:07:26;;;;;;;101.40;56.67;;;15.20;58.60;;;;;;5012053;27;89737;-80
2024/01/28 11:09:53;;;;;;;96.32;56.00;;;15.20;58.30;;;;;;5016301;28;89007;-80
2024/01/28 11:12:20;;;;;;;96.60;55.75;;;15.20;58.40;;;;;;5014287;27;91138;-80
2024/01/28 11:14:46;;;;;;;96.07;55.83;;;15.30;58.10;;;;;;5012455;27;90453;-81
2024/01/28 11:17:13;;;;;;;96.95;55.75;;;15.40;58.00;;;;;;5011407;27;89909;-74
2024/01/28 11:19:38;;;;;;;96.80;55.65;;;15.50;58.40;;;;;;4996540;28;88879;-76
2024/01/28 11:22:04;;;;;;;96.25;55.03;;;15.50;58.10;;;;;;5015160;27;90195;-79
2024/01/28 11:24:44;;;;;;;97.55;55.15;;;15.50;58.10;;;;;;5019940;27;90211;-79
2024/01/28 11:27:13;;;;;;;96.90;55.38;;;15.60;58.00;;;;;;5014806;27;91760;-77
2024/01/28 11:29:39;;;;;;;97.28;55.60;;;15.60;58.10;;;;;;5009414;27;89660;-77
2024/01/28 11:32:07;;;;;;;96.22;55.30;;;15.70;58.10;;;;;;4993569;28;93051;-76
2024/01/28 11:34:32;;;;;;;96.18;54.90;;;15.70;58.00;;;;;;5021389;27;89474;-77
2024/01/28 11:36:59;;;;;;;96.63;55.13;;;15.70;57.80;;;;;;4998950;27;90224;-77
2024/01/28 11:39:46;;;;;;;96.50;55.80;;;15.70;58.20;;;;;;5015574;27;89386;-77
2024/01/28 11:42:13;;;;;;;94.80;54.95;;;15.70;58.10;;;;;;5014526;27;89321;-79
2024/01/28 11:44:40;;;;;;;100.93;57.10;;;15.70;57.90;;;;;;5013916;27;89712;-79
2024/01/28 11:47:07;;;;;;;96.75;55.78;;;15.70;57.80;;;;;;5012819;27;89876;-77
2024/01/28 11:49:33;;;;;;;101.32;56.35;;;15.80;57.90;;;;;;5018808;27;90905;-77
2024/01/28 11:51:59;;;;;;;100.03;56.05;;;15.80;58.50;;;;;;5015605;27;91354;-78
2024/01/28 11:54:25;;;;;;;105.53;55.85;;;15.80;59.00;;;;;;5018979;28;91409;-77
2024/01/28 11:56:50;;;;;;;98.40;55.47;;;15.80;59.10;;;;;;5004156;27;93830;-78
2024/01/28 11:59:16;;;;;;;96.45;55.40;;;15.90;59.40;;;;;;5014743;27;90073;-80
2024/01/28 12:01:42;;;;;;;99.40;56.00;;;16.00;59.50;;;;;;5022704;27;91108;-85
2024/01/28 12:04:11;;;;;;;99.07;55.10;;;16.00;59.20;;;;;;5013005;27;90299;-77
2024/01/28 12:06:37;;;;;;;100.60;55.85;;;16.10;59.10;;;;;;4989135;28;91361;-77
2024/01/28 12:09:03;;;;;;;97.03;55.38;;;16.20;59.30;;;;;;4977936;28;89461;-77
2024/01/28 12:11:28;;;;;;;98.13;55.88;;;16.10;59.10;;;;;;4971953;28;90925;-77
2024/01/28 12:13:55;;;;;;;106.50;55.38;;;16.00;59.30;;;;;;4973991;28;90321;-78
2024/01/28 12:16:24;;;;;;;105.72;55.78;;;16.10;59.40;;;;;;4979554;28;90891;-79
2024/01/28 12:18:53;;;;;;;100.57;56.30;;;16.10;59.70;;;;;;4985115;28;89881;-85
2024/01/28 12:21:21;;;;;;;104.00;56.13;;;16.20;60.80;;;;;;4984242;28;90418;-87